sensor_id;sensor_type;location;lat;lon;timestamp;pressure;altitude;pressure_sealevel;temperature;humidity
74403;BME280;62837;51.082;13.744;2022-09-14T00:01:07;99558.09;;;17.78;69.56
74403;BME280;62837;51.082;13.744;2022-09-14T00:03:56;99554.33;;;17.71;69.61
74403;BME280;62837;51.082;13.744;2022-09-14T00:06:28;99552.52;;;17.71;69.70
74403;BME280;62837;51.082;13.744;2022-09-14T00:09:00;99551.13;;;17.73;69.69
74403;BME280;62837;51.082;13.744;2022-09-14T00:11:33;99543.72;;;17.75;69.63
74403;BME280;62837;51.082;13.744;2022-09-14T00:14:05;99544.41;;;17.73;69.68
74403;BME280;62837;51.082;13.744;2022-09-14T00:16:38;99543.98;;;17.67;69.78
74403;BME280;62837;51.082;13.744;2022-09-14T00:19:16;99541.89;;;17.64;69.88
74403;BME280;62837;51.082;13.744;2022-09-14T00:21:51;99542.48;;;17.69;69.96
74403;BME280;62837;51.082;13.744;2022-09-14T00:24:22;99535.10;;;17.72;69.93
74403;BME280;62837;51.082;13.744;2022-09-14T00:26:53;99530.09;;;17.74;69.84
74403;BME280;62837;51.082;13.744;2022-09-14T00:29:24;99525.08;;;17.75;69.80
74403;BME280;62837;51.082;13.744;2022-09-14T00:31:55;99526.23;;;17.78;69.75
74403;BME280;62837;51.082;13.744;2022-09-14T00:34:26;99528.19;;;17.81;69.64
74403;BME280;62837;51.082;13.744;2022-09-14T00:36:56;99527.71;;;17.83;69.59
74403;BME280;62837;51.082;13.744;2022-09-14T00:39:27;99523.34;;;17.81;69.60
74403;BME280;62837;51.082;13.744;2022-09-14T00:41:58;99524.33;;;17.81;69.56
74403;BME280;62837;51.082;13.744;2022-09-14T00:45:04;99524.16;;;17.83;69.53
74403;BME280;62837;51.082;13.744;2022-09-14T00:47:36;99519.64;;;17.85;69.58
74403;BME280;62837;51.082;13.744;2022-09-14T00:50:07;99519.52;;;17.86;69.62
74403;BME280;62837;51.082;13.744;2022-09-14T00:52:39;99517.09;;;17.85;69.73
74403;BME280;62837;51.082;13.744;2022-09-14T00:55:13;99520.77;;;17.82;69.84
74403;BME280;62837;51.082;13.744;2022-09-14T00:57:47;99514.31;;;17.82;69.95
74403;BME280;62837;51.082;13.744;2022-09-14T01:00:23;99511.00;;;17.84;69.95
74403;BME280;62837;51.082;13.744;2022-09-14T01:02:57;99510.95;;;17.86;69.90
74403;BME280;62837;51.082;13.744;2022-09-14T01:05:38;99510.35;;;17.87;70.02
74403;BME280;62837;51.082;13.744;2022-09-14T01:08:26;99512.60;;;17.88;69.96
74403;BME280;62837;51.082;13.744;2022-09-14T01:11:10;99509.39;;;17.90;70.01
74403;BME280;62837;51.082;13.744;2022-09-14T01:13:46;99511.52;;;17.93;69.94
74403;BME280;62837;51.082;13.744;2022-09-14T01:16:27;99508.52;;;17.95;69.89
74403;BME280;62837;51.082;13.744;2022-09-14T01:19:03;99505.96;;;17.97;69.97
74403;BME280;62837;51.082;13.744;2022-09-14T01:21:36;99513.15;;;17.98;69.98
74403;BME280;62837;51.082;13.744;2022-09-14T01:24:14;99505.92;;;17.96;70.06
74403;BME280;62837;51.082;13.744;2022-09-14T01:27:11;99506.67;;;17.93;70.13
74403;BME280;62837;51.082;13.744;2022-09-14T01:29:46;99504.13;;;17.90;70.15
74403;BME280;62837;51.082;13.744;2022-09-14T01:32:20;99502.76;;;17.91;70.33
74403;BME280;62837;51.082;13.744;2022-09-14T01:34:59;99501.36;;;17.94;70.42
74403;BME280;62837;51.082;13.744;2022-09-14T01:37:35;99497.65;;;17.97;70.27
74403;BME280;62837;51.082;13.744;2022-09-14T01:40:13;99492.70;;;18.01;70.25
74403;BME280;62837;51.082;13.744;2022-09-14T01:42:50;99489.05;;;18.01;70.19
74403;BME280;62837;51.082;13.744;2022-09-14T01:45:24;99489.27;;;18.04;70.12
74403;BME280;62837;51.082;13.744;2022-09-14T01:48:01;99490.44;;;18.07;70.11
74403;BME280;62837;51.082;13.744;2022-09-14T01:50:38;99490.09;;;18.08;70.00
74403;BME280;62837;51.082;13.744;2022-09-14T01:53:14;99493.00;;;18.10;69.97
74403;BME280;62837;51.082;13.744;2022-09-14T01:55:50;99491.17;;;18.09;69.97
74403;BME280;62837;51.082;13.744;2022-09-14T01:58:27;99485.14;;;18.10;69.84
74403;BME280;62837;51.082;13.744;2022-09-14T02:01:02;99476.12;;;18.12;69.68
74403;BME280;62837;51.082;13.744;2022-09-14T02:03:38;99468.59;;;18.15;69.67
74403;BME280;62837;51.082;13.744;2022-09-14T02:06:14;99466.77;;;18.17;69.65
74403;BME280;62837;51.082;13.744;2022-09-14T02:08:50;99460.69;;;18.18;69.57
74403;BME280;62837;51.082;13.744;2022-09-14T02:11:21;99459.56;;;18.17;69.60
74403;BME280;62837;51.082;13.744;2022-09-14T02:13:52;99460.71;;;18.16;69.57
74403;BME280;62837;51.082;13.744;2022-09-14T02:16:24;99465.03;;;18.15;69.61
74403;BME280;62837;51.082;13.744;2022-09-14T02:18:55;99461.83;;;18.15;69.49
74403;BME280;62837;51.082;13.744;2022-09-14T02:21:27;99462.75;;;18.14;69.45
74403;BME280;62837;51.082;13.744;2022-09-14T02:23:58;99461.48;;;18.07;69.51
74403;BME280;62837;51.082;13.744;2022-09-14T02:26:30;99459.77;;;18.00;69.70
74403;BME280;62837;51.082;13.744;2022-09-14T02:29:01;99456.59;;;18.00;69.77
74403;BME280;62837;51.082;13.744;2022-09-14T02:31:43;99452.14;;;18.02;69.70
74403;BME280;62837;51.082;13.744;2022-09-14T02:34:26;99450.98;;;18.07;69.61
74403;BME280;62837;51.082;13.744;2022-09-14T02:37:03;99445.18;;;18.11;69.64
74403;BME280;62837;51.082;13.744;2022-09-14T02:39:46;99441.11;;;18.14;69.47
74403;BME280;62837;51.082;13.744;2022-09-14T02:42:27;99444.51;;;18.17;69.37
74403;BME280;62837;51.082;13.744;2022-09-14T02:45:13;99444.85;;;18.12;69.33
74403;BME280;62837;51.082;13.744;2022-09-14T02:47:53;99444.50;;;18.06;69.55
74403;BME280;62837;51.082;13.744;2022-09-14T02:50:31;99450.02;;;17.96;69.67
74403;BME280;62837;51.082;13.744;2022-09-14T02:53:09;99448.46;;;17.91;69.85
74403;BME280;62837;51.082;13.744;2022-09-14T02:55:46;99447.88;;;17.87;69.94
74403;BME280;62837;51.082;13.744;2022-09-14T02:58:17;99440.98;;;17.84;70.06
74403;BME280;62837;51.082;13.744;2022-09-14T03:00:49;99444.52;;;17.86;70.18
74403;BME280;62837;51.082;13.744;2022-09-14T03:03:21;99445.80;;;17.91;70.19
74403;BME280;62837;51.082;13.744;2022-09-14T03:05:52;99448.83;;;17.88;70.11
74403;BME280;62837;51.082;13.744;2022-09-14T03:08:26;99451.53;;;17.81;70.25
74403;BME280;62837;51.082;13.744;2022-09-14T03:10:55;99455.13;;;17.80;70.27
74403;BME280;62837;51.082;13.744;2022-09-14T03:13:26;99451.17;;;17.80;70.37
74403;BME280;62837;51.082;13.744;2022-09-14T03:15:57;99450.65;;;17.83;70.52
74403;BME280;62837;51.082;13.744;2022-09-14T03:18:27;99439.68;;;17.79;70.50
74403;BME280;62837;51.082;13.744;2022-09-14T03:21:04;99446.41;;;17.89;70.36
74403;BME280;62837;51.082;13.744;2022-09-14T03:23:40;99446.07;;;17.94;70.22
74403;BME280;62837;51.082;13.744;2022-09-14T03:26:14;99448.05;;;18.00;70.06
74403;BME280;62837;51.082;13.744;2022-09-14T03:28:50;99453.91;;;18.03;69.94
74403;BME280;62837;51.082;13.744;2022-09-14T03:31:22;99455.44;;;18.05;69.92
74403;BME280;62837;51.082;13.744;2022-09-14T03:33:55;99458.70;;;18.05;69.84
74403;BME280;62837;51.082;13.744;2022-09-14T03:36:27;99461.02;;;18.04;69.74
74403;BME280;62837;51.082;13.744;2022-09-14T03:38:58;99452.60;;;18.00;69.91
74403;BME280;62837;51.082;13.744;2022-09-14T03:41:30;99450.45;;;17.98;69.87
74403;BME280;62837;51.082;13.744;2022-09-14T03:44:01;99446.09;;;18.00;69.85
74403;BME280;62837;51.082;13.744;2022-09-14T03:46:32;99445.29;;;18.04;69.88
74403;BME280;62837;51.082;13.744;2022-09-14T03:49:03;99444.42;;;18.05;69.71
74403;BME280;62837;51.082;13.744;2022-09-14T03:51:35;99444.45;;;18.01;69.75
74403;BME280;62837;51.082;13.744;2022-09-14T03:54:06;99442.27;;;17.96;69.81
74403;BME280;62837;51.082;13.744;2022-09-14T03:56:37;99437.23;;;17.95;69.84
74403;BME280;62837;51.082;13.744;2022-09-14T03:59:09;99436.65;;;17.97;69.88
74403;BME280;62837;51.082;13.744;2022-09-14T04:01:40;99433.58;;;17.95;69.94
74403;BME280;62837;51.082;13.744;2022-09-14T04:04:11;99430.58;;;17.95;69.95
74403;BME280;62837;51.082;13.744;2022-09-14T04:06:42;99422.90;;;17.97;69.91
74403;BME280;62837;51.082;13.744;2022-09-14T04:09:13;99418.41;;;17.99;69.90
74403;BME280;62837;51.082;13.744;2022-09-14T04:11:44;99415.58;;;18.02;69.85
74403;BME280;62837;51.082;13.744;2022-09-14T04:14:14;99413.41;;;18.04;69.88
74403;BME280;62837;51.082;13.744;2022-09-14T04:16:46;99411.09;;;18.05;69.80
74403;BME280;62837;51.082;13.744;2022-09-14T04:19:17;99411.27;;;18.03;69.86
74403;BME280;62837;51.082;13.744;2022-09-14T04:21:48;99407.62;;;18.05;69.77
74403;BME280;62837;51.082;13.744;2022-09-14T04:24:18;99406.05;;;18.08;69.63
74403;BME280;62837;51.082;13.744;2022-09-14T04:26:51;99406.14;;;18.08;69.63
74403;BME280;62837;51.082;13.744;2022-09-14T04:29:22;99407.04;;;18.09;69.68
74403;BME280;62837;51.082;13.744;2022-09-14T04:31:52;99405.31;;;18.11;69.68
74403;BME280;62837;51.082;13.744;2022-09-14T04:34:23;99399.98;;;18.11;69.57
74403;BME280;62837;51.082;13.744;2022-09-14T04:36:54;99399.65;;;18.11;69.61
74403;BME280;62837;51.082;13.744;2022-09-14T04:39:24;99397.48;;;18.08;69.53
74403;BME280;62837;51.082;13.744;2022-09-14T04:41:55;99399.80;;;18.06;69.65
74403;BME280;62837;51.082;13.744;2022-09-14T04:44:26;99396.66;;;18.08;69.69
74403;BME280;62837;51.082;13.744;2022-09-14T04:46:57;99388.55;;;18.10;69.65
74403;BME280;62837;51.082;13.744;2022-09-14T04:49:28;99386.50;;;18.11;69.75
74403;BME280;62837;51.082;13.744;2022-09-14T04:51:59;99385.20;;;18.05;69.68
74403;BME280;62837;51.082;13.744;2022-09-14T04:54:30;99384.11;;;17.99;69.79
74403;BME280;62837;51.082;13.744;2022-09-14T04:57:00;99390.45;;;17.94;70.07
74403;BME280;62837;51.082;13.744;2022-09-14T04:59:32;99388.30;;;17.89;70.17
74403;BME280;62837;51.082;13.744;2022-09-14T05:02:03;99386.28;;;17.85;70.28
74403;BME280;62837;51.082;13.744;2022-09-14T05:04:33;99386.86;;;17.87;70.32
74403;BME280;62837;51.082;13.744;2022-09-14T05:07:04;99388.52;;;17.92;70.24
74403;BME280;62837;51.082;13.744;2022-09-14T05:09:35;99388.48;;;17.96;70.30
74403;BME280;62837;51.082;13.744;2022-09-14T05:12:07;99393.63;;;18.00;70.32
74403;BME280;62837;51.082;13.744;2022-09-14T05:14:37;99391.71;;;18.04;70.36
74403;BME280;62837;51.082;13.744;2022-09-14T05:17:08;99392.38;;;18.04;70.46
74403;BME280;62837;51.082;13.744;2022-09-14T05:19:42;99384.71;;;18.03;70.51
74403;BME280;62837;51.082;13.744;2022-09-14T05:22:12;99381.63;;;18.05;70.52
74403;BME280;62837;51.082;13.744;2022-09-14T05:24:44;99378.22;;;18.10;70.40
74403;BME280;62837;51.082;13.744;2022-09-14T05:27:15;99382.03;;;18.13;70.46
74403;BME280;62837;51.082;13.744;2022-09-14T05:29:45;99384.67;;;18.16;70.30
74403;BME280;62837;51.082;13.744;2022-09-14T05:32:16;99390.41;;;18.18;70.23
74403;BME280;62837;51.082;13.744;2022-09-14T05:34:47;99385.33;;;18.18;70.22
74403;BME280;62837;51.082;13.744;2022-09-14T05:37:18;99383.65;;;18.18;70.16
74403;BME280;62837;51.082;13.744;2022-09-14T05:39:48;99380.48;;;18.19;70.23
74403;BME280;62837;51.082;13.744;2022-09-14T05:42:19;99386.81;;;18.21;70.27
74403;BME280;62837;51.082;13.744;2022-09-14T05:44:50;99381.80;;;18.23;70.17
74403;BME280;62837;51.082;13.744;2022-09-14T05:47:21;99381.01;;;18.23;70.15
74403;BME280;62837;51.082;13.744;2022-09-14T05:49:52;99379.67;;;18.20;70.15
74403;BME280;62837;51.082;13.744;2022-09-14T05:52:23;99377.86;;;18.16;70.23
74403;BME280;62837;51.082;13.744;2022-09-14T05:54:54;99378.22;;;18.15;70.16
74403;BME280;62837;51.082;13.744;2022-09-14T05:57:24;99373.79;;;18.20;70.12
74403;BME280;62837;51.082;13.744;2022-09-14T05:59:55;99367.98;;;18.27;70.03
74403;BME280;62837;51.082;13.744;2022-09-14T06:02:26;99369.39;;;18.36;69.91
74403;BME280;62837;51.082;13.744;2022-09-14T06:04:56;99367.17;;;18.46;69.87
74403;BME280;62837;51.082;13.744;2022-09-14T06:07:27;99367.64;;;18.53;69.53
74403;BME280;62837;51.082;13.744;2022-09-14T06:09:58;99370.27;;;18.62;69.50
74403;BME280;62837;51.082;13.744;2022-09-14T06:12:29;99366.87;;;18.68;69.31
74403;BME280;62837;51.082;13.744;2022-09-14T06:15:00;99365.04;;;18.73;69.26
74403;BME280;62837;51.082;13.744;2022-09-14T06:17:31;99354.30;;;18.71;69.15
74403;BME280;62837;51.082;13.744;2022-09-14T06:20:03;99360.57;;;18.75;68.97
74403;BME280;62837;51.082;13.744;2022-09-14T06:22:35;99357.67;;;18.76;69.07
74403;BME280;62837;51.082;13.744;2022-09-14T06:25:07;99350.38;;;18.79;68.94
74403;BME280;62837;51.082;13.744;2022-09-14T06:27:39;99352.92;;;18.81;68.80
74403;BME280;62837;51.082;13.744;2022-09-14T06:30:12;99351.38;;;18.82;68.80
74403;BME280;62837;51.082;13.744;2022-09-14T06:32:42;99351.27;;;18.78;68.83
74403;BME280;62837;51.082;13.744;2022-09-14T06:35:13;99355.46;;;18.69;68.94
74403;BME280;62837;51.082;13.744;2022-09-14T06:37:44;99357.92;;;18.63;69.27
74403;BME280;62837;51.082;13.744;2022-09-14T06:40:15;99358.89;;;18.57;69.30
74403;BME280;62837;51.082;13.744;2022-09-14T06:42:46;99363.70;;;18.51;69.44
74403;BME280;62837;51.082;13.744;2022-09-14T06:45:18;99364.97;;;18.46;69.57
74403;BME280;62837;51.082;13.744;2022-09-14T06:47:48;99368.55;;;18.45;69.77
74403;BME280;62837;51.082;13.744;2022-09-14T06:50:19;99370.38;;;18.42;69.91
74403;BME280;62837;51.082;13.744;2022-09-14T06:52:50;99371.40;;;18.39;69.82
74403;BME280;62837;51.082;13.744;2022-09-14T06:55:21;99365.70;;;18.33;69.99
74403;BME280;62837;51.082;13.744;2022-09-14T06:57:51;99366.17;;;18.29;70.22
74403;BME280;62837;51.082;13.744;2022-09-14T07:00:22;99365.96;;;18.26;70.33
74403;BME280;62837;51.082;13.744;2022-09-14T07:02:54;99366.67;;;18.22;70.53
74403;BME280;62837;51.082;13.744;2022-09-14T07:05:25;99366.92;;;18.17;70.57
74403;BME280;62837;51.082;13.744;2022-09-14T07:07:56;99377.67;;;18.19;70.74
74403;BME280;62837;51.082;13.744;2022-09-14T07:10:26;99375.59;;;18.21;71.01
74403;BME280;62837;51.082;13.744;2022-09-14T07:12:59;99370.86;;;18.20;71.26
74403;BME280;62837;51.082;13.744;2022-09-14T07:15:29;99368.19;;;18.21;71.39
74403;BME280;62837;51.082;13.744;2022-09-14T07:18:01;99360.42;;;18.18;71.68
74403;BME280;62837;51.082;13.744;2022-09-14T07:20:33;99356.61;;;18.16;72.00
74403;BME280;62837;51.082;13.744;2022-09-14T07:23:04;99357.38;;;18.16;71.98
74403;BME280;62837;51.082;13.744;2022-09-14T07:25:35;99353.27;;;18.16;71.92
74403;BME280;62837;51.082;13.744;2022-09-14T07:28:06;99357.23;;;18.17;72.18
74403;BME280;62837;51.082;13.744;2022-09-14T07:30:37;99359.23;;;18.17;71.96
74403;BME280;62837;51.082;13.744;2022-09-14T07:33:09;99356.38;;;18.18;71.84
74403;BME280;62837;51.082;13.744;2022-09-14T07:35:40;99362.59;;;18.18;71.96
74403;BME280;62837;51.082;13.744;2022-09-14T07:38:10;99362.83;;;18.18;71.93
74403;BME280;62837;51.082;13.744;2022-09-14T07:40:41;99360.27;;;18.18;71.90
74403;BME280;62837;51.082;13.744;2022-09-14T07:43:12;99359.70;;;18.17;71.91
74403;BME280;62837;51.082;13.744;2022-09-14T07:45:43;99358.52;;;18.16;71.84
74403;BME280;62837;51.082;13.744;2022-09-14T07:48:13;99359.14;;;18.17;71.87
74403;BME280;62837;51.082;13.744;2022-09-14T07:50:44;99358.20;;;18.20;72.00
74403;BME280;62837;51.082;13.744;2022-09-14T07:53:15;99360.08;;;18.20;71.88
74403;BME280;62837;51.082;13.744;2022-09-14T07:55:46;99361.26;;;18.18;72.27
74403;BME280;62837;51.082;13.744;2022-09-14T07:58:17;99360.05;;;18.16;72.13
74403;BME280;62837;51.082;13.744;2022-09-14T08:00:47;99362.44;;;18.18;72.14
74403;BME280;62837;51.082;13.744;2022-09-14T08:03:18;99361.27;;;18.21;72.06
74403;BME280;62837;51.082;13.744;2022-09-14T08:05:48;99358.77;;;18.21;71.95
74403;BME280;62837;51.082;13.744;2022-09-14T08:08:19;99358.16;;;18.19;72.15
74403;BME280;62837;51.082;13.744;2022-09-14T08:10:50;99362.42;;;18.17;72.11
74403;BME280;62837;51.082;13.744;2022-09-14T08:13:21;99359.95;;;18.18;72.29
74403;BME280;62837;51.082;13.744;2022-09-14T08:15:51;99356.40;;;18.20;72.16
74403;BME280;62837;51.082;13.744;2022-09-14T08:18:22;99355.06;;;18.24;72.30
74403;BME280;62837;51.082;13.744;2022-09-14T08:20:53;99352.66;;;18.29;72.29
74403;BME280;62837;51.082;13.744;2022-09-14T08:23:24;99351.91;;;18.33;72.21
74403;BME280;62837;51.082;13.744;2022-09-14T08:25:55;99355.06;;;18.38;72.37
74403;BME280;62837;51.082;13.744;2022-09-14T08:28:25;99357.77;;;18.41;72.70
74403;BME280;62837;51.082;13.744;2022-09-14T08:30:59;99357.44;;;18.41;72.76
74403;BME280;62837;51.082;13.744;2022-09-14T08:33:31;99358.76;;;18.42;72.98
74403;BME280;62837;51.082;13.744;2022-09-14T08:36:03;99360.85;;;18.43;72.95
74403;BME280;62837;51.082;13.744;2022-09-14T08:38:35;99362.20;;;18.45;72.89
74403;BME280;62837;51.082;13.744;2022-09-14T08:41:08;99360.26;;;18.46;72.85
74403;BME280;62837;51.082;13.744;2022-09-14T08:43:40;99360.85;;;18.47;72.95
74403;BME280;62837;51.082;13.744;2022-09-14T08:46:17;99357.88;;;18.48;72.82
74403;BME280;62837;51.082;13.744;2022-09-14T08:48:49;99357.38;;;18.50;72.98
74403;BME280;62837;51.082;13.744;2022-09-14T08:51:21;99358.30;;;18.53;73.09
74403;BME280;62837;51.082;13.744;2022-09-14T08:53:53;99351.55;;;18.55;73.11
74403;BME280;62837;51.082;13.744;2022-09-14T08:56:28;99353.63;;;18.59;73.29
74403;BME280;62837;51.082;13.744;2022-09-14T08:59:30;99356.56;;;18.62;73.08
74403;BME280;62837;51.082;13.744;2022-09-14T09:02:19;99356.20;;;18.66;73.10
74403;BME280;62837;51.082;13.744;2022-09-14T09:04:56;99355.18;;;18.68;73.66
74403;BME280;62837;51.082;13.744;2022-09-14T09:07:34;99356.73;;;18.71;73.50
74403;BME280;62837;51.082;13.744;2022-09-14T09:10:12;99356.92;;;18.73;73.36
74403;BME280;62837;51.082;13.744;2022-09-14T09:12:49;99352.24;;;18.76;73.47
74403;BME280;62837;51.082;13.744;2022-09-14T09:15:24;99348.41;;;18.75;73.75
74403;BME280;62837;51.082;13.744;2022-09-14T09:18:00;99358.30;;;18.74;73.83
74403;BME280;62837;51.082;13.744;2022-09-14T09:20:35;99359.19;;;18.70;73.89
74403;BME280;62837;51.082;13.744;2022-09-14T09:23:12;99353.52;;;18.68;73.91
74403;BME280;62837;51.082;13.744;2022-09-14T09:25:54;99347.13;;;18.70;73.87
74403;BME280;62837;51.082;13.744;2022-09-14T09:28:28;99342.74;;;18.71;73.83
74403;BME280;62837;51.082;13.744;2022-09-14T09:31:01;99339.53;;;18.72;73.73
74403;BME280;62837;51.082;13.744;2022-09-14T09:33:48;99341.45;;;18.75;73.80
74403;BME280;62837;51.082;13.744;2022-09-14T09:36:20;99333.91;;;18.73;73.84
74403;BME280;62837;51.082;13.744;2022-09-14T09:38:51;99340.31;;;18.78;73.79
74403;BME280;62837;51.082;13.744;2022-09-14T09:41:25;99337.08;;;18.81;73.61
74403;BME280;62837;51.082;13.744;2022-09-14T09:44:01;99331.73;;;18.85;73.96
74403;BME280;62837;51.082;13.744;2022-09-14T09:46:36;99331.46;;;18.88;73.86
74403;BME280;62837;51.082;13.744;2022-09-14T09:49:18;99330.75;;;18.92;73.80
74403;BME280;62837;51.082;13.744;2022-09-14T09:51:50;99332.66;;;18.96;73.58
74403;BME280;62837;51.082;13.744;2022-09-14T09:54:30;99328.95;;;18.99;73.92
74403;BME280;62837;51.082;13.744;2022-09-14T09:57:04;99327.90;;;19.01;73.72
74403;BME280;62837;51.082;13.744;2022-09-14T09:59:37;99325.56;;;19.02;73.54
74403;BME280;62837;51.082;13.744;2022-09-14T10:02:28;99323.59;;;19.03;73.39
74403;BME280;62837;51.082;13.744;2022-09-14T10:05:04;99322.59;;;19.00;73.29
74403;BME280;62837;51.082;13.744;2022-09-14T10:07:38;99316.01;;;19.00;73.48
74403;BME280;62837;51.082;13.744;2022-09-14T10:10:11;99308.17;;;18.99;73.49
74403;BME280;62837;51.082;13.744;2022-09-14T10:12:47;99302.48;;;18.98;73.48
74403;BME280;62837;51.082;13.744;2022-09-14T10:15:21;99302.63;;;18.98;73.63
74403;BME280;62837;51.082;13.744;2022-09-14T10:18:16;99302.31;;;18.98;73.91
74403;BME280;62837;51.082;13.744;2022-09-14T10:21:05;99303.35;;;18.96;73.77
74403;BME280;62837;51.082;13.744;2022-09-14T10:23:37;99308.41;;;18.99;73.56
74403;BME280;62837;51.082;13.744;2022-09-14T10:26:23;99306.33;;;19.01;73.69
74403;BME280;62837;51.082;13.744;2022-09-14T10:29:23;99307.90;;;19.01;73.53
74403;BME280;62837;51.082;13.744;2022-09-14T10:32:01;99301.90;;;19.04;73.47
74403;BME280;62837;51.082;13.744;2022-09-14T10:34:34;99301.27;;;19.08;73.30
74403;BME280;62837;51.082;13.744;2022-09-14T10:37:18;99296.37;;;19.11;73.18
74403;BME280;62837;51.082;13.744;2022-09-14T10:40:04;99295.05;;;19.13;73.28
74403;BME280;62837;51.082;13.744;2022-09-14T10:42:41;99293.46;;;19.12;73.30
74403;BME280;62837;51.082;13.744;2022-09-14T10:45:20;99296.25;;;19.13;73.28
74403;BME280;62837;51.082;13.744;2022-09-14T10:48:16;99296.53;;;19.11;73.42
74403;BME280;62837;51.082;13.744;2022-09-14T10:50:59;99304.73;;;19.10;73.35
74403;BME280;62837;51.082;13.744;2022-09-14T10:53:48;99316.38;;;19.08;73.04
74403;BME280;62837;51.082;13.744;2022-09-14T10:56:25;99324.19;;;19.08;73.30
74403;BME280;62837;51.082;13.744;2022-09-14T10:59:18;99333.45;;;19.07;73.14
74403;BME280;62837;51.082;13.744;2022-09-14T11:05:05;99334.02;;;18.99;73.48
74403;BME280;62837;51.082;13.744;2022-09-14T11:07:45;99330.68;;;18.99;74.08
74403;BME280;62837;51.082;13.744;2022-09-14T11:10:25;99327.87;;;18.99;73.92
74403;BME280;62837;51.082;13.744;2022-09-14T11:13:15;99324.85;;;18.98;74.39
74403;BME280;62837;51.082;13.744;2022-09-14T11:15:55;99322.01;;;18.95;74.31
74403;BME280;62837;51.082;13.744;2022-09-14T11:18:35;99316.70;;;18.91;74.25
74403;BME280;62837;51.082;13.744;2022-09-14T11:21:17;99309.96;;;18.90;74.38
74403;BME280;62837;51.082;13.744;2022-09-14T11:23:52;99309.30;;;18.91;74.27
74403;BME280;62837;51.082;13.744;2022-09-14T11:26:28;99300.79;;;18.93;74.12
74403;BME280;62837;51.082;13.744;2022-09-14T11:29:06;99286.48;;;18.94;74.11
74403;BME280;62837;51.082;13.744;2022-09-14T11:31:43;99285.23;;;18.97;73.98
74403;BME280;62837;51.082;13.744;2022-09-14T11:34:39;99293.81;;;18.99;74.07
74403;BME280;62837;51.082;13.744;2022-09-14T11:37:13;99302.45;;;18.98;73.93
74403;BME280;62837;51.082;13.744;2022-09-14T11:39:48;99297.52;;;18.95;74.20
74403;BME280;62837;51.082;13.744;2022-09-14T11:42:26;99291.89;;;18.96;74.26
74403;BME280;62837;51.082;13.744;2022-09-14T11:45:04;99285.53;;;18.99;74.10
74403;BME280;62837;51.082;13.744;2022-09-14T11:47:41;99278.77;;;19.00;74.32
74403;BME280;62837;51.082;13.744;2022-09-14T11:50:20;99270.81;;;19.03;74.39
74403;BME280;62837;51.082;13.744;2022-09-14T11:52:59;99272.10;;;19.04;74.19
74403;BME280;62837;51.082;13.744;2022-09-14T11:55:32;99266.89;;;19.05;74.09
74403;BME280;62837;51.082;13.744;2022-09-14T11:58:05;99270.77;;;19.08;73.94
74403;BME280;62837;51.082;13.744;2022-09-14T12:04:05;99278.05;;;19.18;73.94
74403;BME280;62837;51.082;13.744;2022-09-14T12:06:55;99274.17;;;19.21;74.00
74403;BME280;62837;51.082;13.744;2022-09-14T12:09:36;99269.79;;;19.23;73.75
74403;BME280;62837;51.082;13.744;2022-09-14T12:12:31;99270.90;;;19.23;73.76
74403;BME280;62837;51.082;13.744;2022-09-14T12:15:10;99268.23;;;19.21;73.88
74403;BME280;62837;51.082;13.744;2022-09-14T12:17:42;99263.13;;;19.23;73.82
74403;BME280;62837;51.082;13.744;2022-09-14T12:20:42;99259.61;;;19.25;74.07
74403;BME280;62837;51.082;13.744;2022-09-14T12:23:21;99253.76;;;19.28;74.04
74403;BME280;62837;51.082;13.744;2022-09-14T12:26:03;99251.79;;;19.29;73.96
74403;BME280;62837;51.082;13.744;2022-09-14T12:28:46;99255.52;;;19.29;73.69
74403;BME280;62837;51.082;13.744;2022-09-14T12:34:27;99249.73;;;19.34;74.14
74403;BME280;62837;51.082;13.744;2022-09-14T12:37:03;99252.45;;;19.34;73.93
74403;BME280;62837;51.082;13.744;2022-09-14T12:42:57;99247.15;;;19.31;74.11
74403;BME280;62837;51.082;13.744;2022-09-14T12:45:50;99245.98;;;19.27;74.41
74403;BME280;62837;51.082;13.744;2022-09-14T12:51:35;99245.01;;;19.26;74.10
74403;BME280;62837;51.082;13.744;2022-09-14T12:54:19;99246.48;;;19.28;74.05
74403;BME280;62837;51.082;13.744;2022-09-14T12:57:01;99237.68;;;19.29;73.86
74403;BME280;62837;51.082;13.744;2022-09-14T12:59:41;99225.54;;;19.25;73.91
74403;BME280;62837;51.082;13.744;2022-09-14T13:02:45;99235.17;;;19.30;74.11
74403;BME280;62837;51.082;13.744;2022-09-14T13:05:22;99229.54;;;19.28;73.99
74403;BME280;62837;51.082;13.744;2022-09-14T13:07:54;99228.76;;;19.24;74.18
74403;BME280;62837;51.082;13.744;2022-09-14T13:10:29;99223.09;;;19.22;74.35
74403;BME280;62837;51.082;13.744;2022-09-14T13:13:04;99221.14;;;19.23;74.40
74403;BME280;62837;51.082;13.744;2022-09-14T13:15:38;99212.89;;;19.21;74.36
74403;BME280;62837;51.082;13.744;2022-09-14T13:18:31;99210.71;;;19.19;74.37
74403;BME280;62837;51.082;13.744;2022-09-14T13:21:18;99212.13;;;19.18;74.70
74403;BME280;62837;51.082;13.744;2022-09-14T13:23:49;99216.25;;;19.17;74.70
74403;BME280;62837;51.082;13.744;2022-09-14T13:26:21;99218.33;;;19.18;74.54
74403;BME280;62837;51.082;13.744;2022-09-14T13:28:54;99220.48;;;19.20;74.66
74403;BME280;62837;51.082;13.744;2022-09-14T13:31:29;99212.83;;;19.22;74.82
74403;BME280;62837;51.082;13.744;2022-09-14T13:34:01;99206.09;;;19.23;74.93
74403;BME280;62837;51.082;13.744;2022-09-14T13:36:35;99203.89;;;19.22;74.88
74403;BME280;62837;51.082;13.744;2022-09-14T13:39:16;99204.88;;;19.22;74.75
74403;BME280;62837;51.082;13.744;2022-09-14T13:41:52;99208.88;;;19.23;74.59
74403;BME280;62837;51.082;13.744;2022-09-14T13:44:27;99211.70;;;19.24;74.57
74403;BME280;62837;51.082;13.744;2022-09-14T13:47:02;99211.13;;;19.23;74.57